sensor_id;sensor_type;location;lat;lon;timestamp;temperature;humidity
18797;DHT22;9526;52.612;13.300;2023-04-15T00:01:34;9.10;99.90
18797;DHT22;9526;52.612;13.300;2023-04-15T00:03:58;9.10;99.90
18797;DHT22;9526;52.612;13.300;2023-04-15T00:06:22;9.10;99.90
18797;DHT22;9526;52.612;13.300;2023-04-15T00:08:45;9.20;99.90
18797;DHT22;9526;52.612;13.300;2023-04-15T00:11:09;9.10;99.90
18797;DHT22;9526;52.612;13.300;2023-04-15T00:13:33;9.10;99.90
18797;DHT22;9526;52.612;13.300;2023-04-15T00:15:58;9.20;99.90
18797;DHT22;9526;52.612;13.300;2023-04-15T00:18:23;9.20;99.90
18797;DHT22;9526;52.612;13.300;2023-04-15T00:20:47;9.20;99.90
18797;DHT22;9526;52.612;13.300;2023-04-15T00:23:10;9.20;99.90
18797;DHT22;9526;52.612;13.300;2023-04-15T00:25:34;9.20;99.90
18797;DHT22;9526;52.612;13.300;2023-04-15T00:27:58;9.20;99.90
18797;DHT22;9526;52.612;13.300;2023-04-15T00:30:22;9.20;99.90
18797;DHT22;9526;52.612;13.300;2023-04-15T00:32:48;9.10;99.90
18797;DHT22;9526;52.612;13.300;2023-04-15T00:35:15;9.00;99.90
18797;DHT22;9526;52.612;13.300;2023-04-15T00:37:39;9.00;99.90
18797;DHT22;9526;52.612;13.300;2023-04-15T00:40:10;9.10;99.90
18797;DHT22;9526;52.612;13.300;2023-04-15T00:42:35;9.10;99.90
18797;DHT22;9526;52.612;13.300;2023-04-15T00:44:59;9.00;99.90
18797;DHT22;9526;52.612;13.300;2023-04-15T00:47:22;9.00;99.90
18797;DHT22;9526;52.612;13.300;2023-04-15T00:49:47;9.00;99.90
18797;DHT22;9526;52.612;13.300;2023-04-15T00:52:12;9.10;99.90
18797;DHT22;9526;52.612;13.300;2023-04-15T00:54:36;9.10;99.90
18797;DHT22;9526;52.612;13.300;2023-04-15T00:57:00;9.00;99.90
18797;DHT22;9526;52.612;13.300;2023-04-15T00:59:24;9.00;99.90
18797;DHT22;9526;52.612;13.300;2023-04-15T01:01:48;9.00;99.90
18797;DHT22;9526;52.612;13.300;2023-04-15T01:04:13;9.00;99.90
18797;DHT22;9526;52.612;13.300;2023-04-15T01:06:38;9.00;99.90
18797;DHT22;9526;52.612;13.300;2023-04-15T01:09:02;9.00;99.90
18797;DHT22;9526;52.612;13.300;2023-04-15T01:11:26;8.90;99.90
18797;DHT22;9526;52.612;13.300;2023-04-15T01:13:50;8.90;99.90
18797;DHT22;9526;52.612;13.300;2023-04-15T01:16:14;8.90;99.90
18797;DHT22;9526;52.612;13.300;2023-04-15T01:18:39;9.00;99.90
18797;DHT22;9526;52.612;13.300;2023-04-15T01:21:04;9.00;99.90
18797;DHT22;9526;52.612;13.300;2023-04-15T01:23:30;9.00;99.90
18797;DHT22;9526;52.612;13.300;2023-04-15T01:25:56;9.00;99.90
18797;DHT22;9526;52.612;13.300;2023-04-15T01:28:21;9.00;99.90
18797;DHT22;9526;52.612;13.300;2023-04-15T01:30:44;9.00;99.90
18797;DHT22;9526;52.612;13.300;2023-04-15T01:33:09;9.00;99.90
18797;DHT22;9526;52.612;13.300;2023-04-15T01:35:33;9.00;99.90
18797;DHT22;9526;52.612;13.300;2023-04-15T01:38:02;9.10;99.90
18797;DHT22;9526;52.612;13.300;2023-04-15T01:40:27;9.00;99.90
18797;DHT22;9526;52.612;13.300;2023-04-15T01:42:54;9.10;99.90
18797;DHT22;9526;52.612;13.300;2023-04-15T01:45:17;9.00;99.90
18797;DHT22;9526;52.612;13.300;2023-04-15T01:47:41;9.10;99.90
18797;DHT22;9526;52.612;13.300;2023-04-15T01:50:05;9.00;99.90
18797;DHT22;9526;52.612;13.300;2023-04-15T01:52:30;9.00;99.90
18797;DHT22;9526;52.612;13.300;2023-04-15T01:54:54;9.10;99.90
18797;DHT22;9526;52.612;13.300;2023-04-15T01:57:18;9.10;99.90
18797;DHT22;9526;52.612;13.300;2023-04-15T01:59:43;9.00;99.90
18797;DHT22;9526;52.612;13.300;2023-04-15T02:02:07;9.10;99.90
18797;DHT22;9526;52.612;13.300;2023-04-15T02:04:31;9.10;99.90
18797;DHT22;9526;52.612;13.300;2023-04-15T02:06:55;9.10;99.90
18797;DHT22;9526;52.612;13.300;2023-04-15T02:09:19;9.10;99.90
18797;DHT22;9526;52.612;13.300;2023-04-15T02:11:42;9.10;99.90
18797;DHT22;9526;52.612;13.300;2023-04-15T02:14:06;9.20;99.90
18797;DHT22;9526;52.612;13.300;2023-04-15T02:16:32;9.20;99.90
18797;DHT22;9526;52.612;13.300;2023-04-15T02:18:55;9.20;99.90
18797;DHT22;9526;52.612;13.300;2023-04-15T02:21:19;9.20;99.90
18797;DHT22;9526;52.612;13.300;2023-04-15T02:23:43;9.20;99.90
18797;DHT22;9526;52.612;13.300;2023-04-15T02:26:09;9.20;99.90
18797;DHT22;9526;52.612;13.300;2023-04-15T02:28:32;9.20;99.90
18797;DHT22;9526;52.612;13.300;2023-04-15T02:30:56;9.20;99.90
18797;DHT22;9526;52.612;13.300;2023-04-15T02:33:22;9.20;99.90
18797;DHT22;9526;52.612;13.300;2023-04-15T02:35:46;9.20;99.90
18797;DHT22;9526;52.612;13.300;2023-04-15T02:38:09;9.20;99.90
18797;DHT22;9526;52.612;13.300;2023-04-15T02:40:33;9.20;99.90
18797;DHT22;9526;52.612;13.300;2023-04-15T02:42:57;9.10;99.90
18797;DHT22;9526;52.612;13.300;2023-04-15T02:45:22;9.10;99.90
18797;DHT22;9526;52.612;13.300;2023-04-15T02:47:48;9.10;99.90
18797;DHT22;9526;52.612;13.300;2023-04-15T02:50:13;9.20;99.90
18797;DHT22;9526;52.612;13.300;2023-04-15T02:52:38;9.10;99.90
18797;DHT22;9526;52.612;13.300;2023-04-15T02:55:04;9.20;99.90
18797;DHT22;9526;52.612;13.300;2023-04-15T02:57:29;9.10;99.90
18797;DHT22;9526;52.612;13.300;2023-04-15T02:59:58;9.10;99.90
18797;DHT22;9526;52.612;13.300;2023-04-15T03:02:23;9.10;99.90
18797;DHT22;9526;52.612;13.300;2023-04-15T03:04:47;9.20;99.90
18797;DHT22;9526;52.612;13.300;2023-04-15T03:07:12;9.20;99.90
18797;DHT22;9526;52.612;13.300;2023-04-15T03:09:36;9.20;99.90
18797;DHT22;9526;52.612;13.300;2023-04-15T03:12:01;9.20;99.90
18797;DHT22;9526;52.612;13.300;2023-04-15T03:14:25;9.20;99.90
18797;DHT22;9526;52.612;13.300;2023-04-15T03:16:49;9.10;99.90
18797;DHT22;9526;52.612;13.300;2023-04-15T03:19:13;9.20;99.90
18797;DHT22;9526;52.612;13.300;2023-04-15T03:21:37;9.20;99.90
18797;DHT22;9526;52.612;13.300;2023-04-15T03:24:04;9.20;99.90
18797;DHT22;9526;52.612;13.300;2023-04-15T03:26:29;9.20;99.90
18797;DHT22;9526;52.612;13.300;2023-04-15T03:28:56;9.20;99.90
18797;DHT22;9526;52.612;13.300;2023-04-15T03:31:21;9.10;99.90
18797;DHT22;9526;52.612;13.300;2023-04-15T03:33:45;9.20;99.90
18797;DHT22;9526;52.612;13.300;2023-04-15T03:36:08;9.20;99.90
18797;DHT22;9526;52.612;13.300;2023-04-15T03:38:32;9.20;99.90
18797;DHT22;9526;52.612;13.300;2023-04-15T03:40:57;9.20;99.90
18797;DHT22;9526;52.612;13.300;2023-04-15T03:43:20;9.20;99.90
18797;DHT22;9526;52.612;13.300;2023-04-15T03:45:44;9.20;99.90
18797;DHT22;9526;52.612;13.300;2023-04-15T03:48:08;9.20;99.90
18797;DHT22;9526;52.612;13.300;2023-04-15T03:50:38;9.20;99.90
18797;DHT22;9526;52.612;13.300;2023-04-15T03:53:02;9.20;99.90
18797;DHT22;9526;52.612;13.300;2023-04-15T03:55:26;9.20;99.90
18797;DHT22;9526;52.612;13.300;2023-04-15T03:57:51;9.20;99.90
18797;DHT22;9526;52.612;13.300;2023-04-15T04:00:15;9.20;99.90
18797;DHT22;9526;52.612;13.300;2023-04-15T04:02:38;9.30;99.90
18797;DHT22;9526;52.612;13.300;2023-04-15T04:05:03;9.30;99.90
18797;DHT22;9526;52.612;13.300;2023-04-15T04:07:26;9.20;99.90
18797;DHT22;9526;52.612;13.300;2023-04-15T04:09:50;9.30;99.90
18797;DHT22;9526;52.612;13.300;2023-04-15T04:12:14;9.30;99.90
18797;DHT22;9526;52.612;13.300;2023-04-15T04:14:39;9.30;99.90
18797;DHT22;9526;52.612;13.300;2023-04-15T04:17:03;9.30;99.90
18797;DHT22;9526;52.612;13.300;2023-04-15T04:19:27;9.30;99.90
18797;DHT22;9526;52.612;13.300;2023-04-15T04:21:51;9.30;99.90
18797;DHT22;9526;52.612;13.300;2023-04-15T04:24:14;9.30;99.90
18797;DHT22;9526;52.612;13.300;2023-04-15T04:26:38;9.30;99.90
18797;DHT22;9526;52.612;13.300;2023-04-15T04:29:02;9.30;99.90
18797;DHT22;9526;52.612;13.300;2023-04-15T04:31:27;9.30;99.90
18797;DHT22;9526;52.612;13.300;2023-04-15T04:33:51;9.30;99.90
18797;DHT22;9526;52.612;13.300;2023-04-15T04:36:14;9.30;99.90
18797;DHT22;9526;52.612;13.300;2023-04-15T04:38:38;9.30;99.90
18797;DHT22;9526;52.612;13.300;2023-04-15T04:41:01;9.30;99.90
18797;DHT22;9526;52.612;13.300;2023-04-15T04:43:25;9.40;99.90
18797;DHT22;9526;52.612;13.300;2023-04-15T04:45:49;9.30;99.90
18797;DHT22;9526;52.612;13.300;2023-04-15T04:48:14;9.40;99.90
18797;DHT22;9526;52.612;13.300;2023-04-15T04:50:38;9.30;99.90
18797;DHT22;9526;52.612;13.300;2023-04-15T04:53:02;9.30;99.90
18797;DHT22;9526;52.612;13.300;2023-04-15T04:55:25;9.30;99.90
18797;DHT22;9526;52.612;13.300;2023-04-15T04:57:49;9.40;99.90
18797;DHT22;9526;52.612;13.300;2023-04-15T05:00:13;9.40;99.90
18797;DHT22;9526;52.612;13.300;2023-04-15T05:02:37;9.40;99.90
18797;DHT22;9526;52.612;13.300;2023-04-15T05:05:02;9.40;99.90
18797;DHT22;9526;52.612;13.300;2023-04-15T05:07:26;9.50;99.90
18797;DHT22;9526;52.612;13.300;2023-04-15T05:09:49;9.50;99.90
18797;DHT22;9526;52.612;13.300;2023-04-15T05:12:13;9.50;99.90
18797;DHT22;9526;52.612;13.300;2023-04-15T05:14:37;9.50;99.90
18797;DHT22;9526;52.612;13.300;2023-04-15T05:17:00;9.50;99.90
18797;DHT22;9526;52.612;13.300;2023-04-15T05:19:24;9.50;99.90
18797;DHT22;9526;52.612;13.300;2023-04-15T05:21:49;9.50;99.90
18797;DHT22;9526;52.612;13.300;2023-04-15T05:24:13;9.50;99.90
18797;DHT22;9526;52.612;13.300;2023-04-15T05:26:36;9.50;99.90
18797;DHT22;9526;52.612;13.300;2023-04-15T05:29:00;9.60;99.90
18797;DHT22;9526;52.612;13.300;2023-04-15T05:31:24;9.60;99.90
18797;DHT22;9526;52.612;13.300;2023-04-15T05:33:47;9.60;99.90
18797;DHT22;9526;52.612;13.300;2023-04-15T05:36:11;9.60;99.90
18797;DHT22;9526;52.612;13.300;2023-04-15T05:38:36;9.70;99.90
18797;DHT22;9526;52.612;13.300;2023-04-15T05:41:00;9.70;99.90
18797;DHT22;9526;52.612;13.300;2023-04-15T05:43:23;9.80;99.90
18797;DHT22;9526;52.612;13.300;2023-04-15T05:45:47;9.80;99.90
18797;DHT22;9526;52.612;13.300;2023-04-15T05:48:10;9.80;99.90
18797;DHT22;9526;52.612;13.300;2023-04-15T05:50:34;9.90;99.90
18797;DHT22;9526;52.612;13.300;2023-04-15T05:52:58;9.90;99.90
18797;DHT22;9526;52.612;13.300;2023-04-15T05:55:23;9.90;99.90
18797;DHT22;9526;52.612;13.300;2023-04-15T05:57:46;9.90;99.90
18797;DHT22;9526;52.612;13.300;2023-04-15T06:00:11;10.00;99.90
18797;DHT22;9526;52.612;13.300;2023-04-15T06:02:36;10.10;99.90
18797;DHT22;9526;52.612;13.300;2023-04-15T06:05:00;10.10;99.90
18797;DHT22;9526;52.612;13.300;2023-04-15T06:07:24;10.20;99.90
18797;DHT22;9526;52.612;13.300;2023-04-15T06:09:48;10.20;99.90
18797;DHT22;9526;52.612;13.300;2023-04-15T06:12:13;10.30;99.90
18797;DHT22;9526;52.612;13.300;2023-04-15T06:14:38;10.40;99.90
18797;DHT22;9526;52.612;13.300;2023-04-15T06:17:01;10.50;99.90
18797;DHT22;9526;52.612;13.300;2023-04-15T06:19:25;10.60;99.90
18797;DHT22;9526;52.612;13.300;2023-04-15T06:21:48;10.60;99.90
18797;DHT22;9526;52.612;13.300;2023-04-15T06:24:12;10.60;99.90
18797;DHT22;9526;52.612;13.300;2023-04-15T06:26:36;10.70;99.90
18797;DHT22;9526;52.612;13.300;2023-04-15T06:29:01;10.70;99.90
18797;DHT22;9526;52.612;13.300;2023-04-15T06:31:25;10.70;99.90
18797;DHT22;9526;52.612;13.300;2023-04-15T06:33:48;10.80;99.90
18797;DHT22;9526;52.612;13.300;2023-04-15T06:36:12;11.10;99.90
18797;DHT22;9526;52.612;13.300;2023-04-15T06:38:36;11.30;99.90
18797;DHT22;9526;52.612;13.300;2023-04-15T06:40:59;11.40;99.90
18797;DHT22;9526;52.612;13.300;2023-04-15T06:43:23;11.50;99.90
18797;DHT22;9526;52.612;13.300;2023-04-15T06:45:48;11.60;99.90
18797;DHT22;9526;52.612;13.300;2023-04-15T06:48:12;11.50;99.90
18797;DHT22;9526;52.612;13.300;2023-04-15T06:50:35;11.50;99.90
18797;DHT22;9526;52.612;13.300;2023-04-15T06:52:59;11.60;99.90
18797;DHT22;9526;52.612;13.300;2023-04-15T06:55:23;11.70;99.90
18797;DHT22;9526;52.612;13.300;2023-04-15T06:57:46;11.80;99.90
18797;DHT22;9526;52.612;13.300;2023-04-15T07:00:11;12.00;99.90
18797;DHT22;9526;52.612;13.300;2023-04-15T07:02:37;12.10;99.90
18797;DHT22;9526;52.612;13.300;2023-04-15T07:05:00;12.20;99.90
18797;DHT22;9526;52.612;13.300;2023-04-15T07:07:24;12.30;99.90
18797;DHT22;9526;52.612;13.300;2023-04-15T07:09:48;12.30;99.90
18797;DHT22;9526;52.612;13.300;2023-04-15T07:12:12;12.20;99.90
18797;DHT22;9526;52.612;13.300;2023-04-15T07:14:36;12.20;99.90
18797;DHT22;9526;52.612;13.300;2023-04-15T07:16:59;12.10;99.90
18797;DHT22;9526;52.612;13.300;2023-04-15T07:19:24;12.00;99.90
18797;DHT22;9526;52.612;13.300;2023-04-15T07:21:48;12.00;99.90
18797;DHT22;9526;52.612;13.300;2023-04-15T07:24:12;12.00;99.90
18797;DHT22;9526;52.612;13.300;2023-04-15T07:26:38;12.00;99.90
18797;DHT22;9526;52.612;13.300;2023-04-15T07:29:01;11.80;99.90
18797;DHT22;9526;52.612;13.300;2023-04-15T07:31:25;11.90;99.90
18797;DHT22;9526;52.612;13.300;2023-04-15T07:33:49;11.80;99.90
18797;DHT22;9526;52.612;13.300;2023-04-15T07:36:14;11.80;99.90
18797;DHT22;9526;52.612;13.300;2023-04-15T07:38:38;11.80;99.90
18797;DHT22;9526;52.612;13.300;2023-04-15T07:41:02;11.60;99.90
18797;DHT22;9526;52.612;13.300;2023-04-15T07:43:26;11.60;99.90
18797;DHT22;9526;52.612;13.300;2023-04-15T07:45:50;11.60;99.90
18797;DHT22;9526;52.612;13.300;2023-04-15T07:48:14;11.50;99.90
18797;DHT22;9526;52.612;13.300;2023-04-15T07:50:37;11.40;99.90
18797;DHT22;9526;52.612;13.300;2023-04-15T07:53:02;11.30;99.90
18797;DHT22;9526;52.612;13.300;2023-04-15T07:55:26;11.30;99.90
18797;DHT22;9526;52.612;13.300;2023-04-15T07:57:51;11.40;99.90
18797;DHT22;9526;52.612;13.300;2023-04-15T08:00:15;11.40;99.90
18797;DHT22;9526;52.612;13.300;2023-04-15T08:02:39;11.40;99.90
18797;DHT22;9526;52.612;13.300;2023-04-15T08:05:04;11.40;99.90
18797;DHT22;9526;52.612;13.300;2023-04-15T08:07:28;11.50;99.90
18797;DHT22;9526;52.612;13.300;2023-04-15T08:09:53;11.50;99.90
18797;DHT22;9526;52.612;13.300;2023-04-15T08:12:17;11.50;99.90
18797;DHT22;9526;52.612;13.300;2023-04-15T08:14:41;11.60;99.90
18797;DHT22;9526;52.612;13.300;2023-04-15T08:17:05;11.70;99.90
18797;DHT22;9526;52.612;13.300;2023-04-15T08:19:29;11.50;99.90
18797;DHT22;9526;52.612;13.300;2023-04-15T08:21:53;11.50;99.90
18797;DHT22;9526;52.612;13.300;2023-04-15T08:24:17;11.50;99.90
18797;DHT22;9526;52.612;13.300;2023-04-15T08:26:42;11.40;99.90
18797;DHT22;9526;52.612;13.300;2023-04-15T08:29:05;11.40;99.90
18797;DHT22;9526;52.612;13.300;2023-04-15T08:31:29;11.50;99.90
18797;DHT22;9526;52.612;13.300;2023-04-15T08:33:53;11.50;99.90
18797;DHT22;9526;52.612;13.300;2023-04-15T08:36:18;11.40;99.90
18797;DHT22;9526;52.612;13.300;2023-04-15T08:38:43;11.40;99.90
18797;DHT22;9526;52.612;13.300;2023-04-15T08:41:11;11.40;99.90
18797;DHT22;9526;52.612;13.300;2023-04-15T08:43:48;11.40;99.90
18797;DHT22;9526;52.612;13.300;2023-04-15T08:46:15;11.50;99.90
18797;DHT22;9526;52.612;13.300;2023-04-15T08:48:39;11.50;99.90
18797;DHT22;9526;52.612;13.300;2023-04-15T08:51:03;11.60;99.90
18797;DHT22;9526;52.612;13.300;2023-04-15T08:53:28;11.60;99.90
18797;DHT22;9526;52.612;13.300;2023-04-15T08:55:56;11.70;99.90
18797;DHT22;9526;52.612;13.300;2023-04-15T08:58:20;11.70;99.90
18797;DHT22;9526;52.612;13.300;2023-04-15T09:00:45;11.80;99.90
18797;DHT22;9526;52.612;13.300;2023-04-15T09:03:10;11.90;99.90
18797;DHT22;9526;52.612;13.300;2023-04-15T09:05:34;11.90;99.90
18797;DHT22;9526;52.612;13.300;2023-04-15T09:07:58;11.90;99.90
18797;DHT22;9526;52.612;13.300;2023-04-15T09:10:22;11.90;99.90
18797;DHT22;9526;52.612;13.300;2023-04-15T09:12:46;11.80;99.90
18797;DHT22;9526;52.612;13.300;2023-04-15T09:15:10;11.80;99.90
18797;DHT22;9526;52.612;13.300;2023-04-15T09:17:41;11.80;99.90
18797;DHT22;9526;52.612;13.300;2023-04-15T09:20:10;11.80;99.90
18797;DHT22;9526;52.612;13.300;2023-04-15T09:22:35;11.80;99.90
18797;DHT22;9526;52.612;13.300;2023-04-15T09:24:59;11.80;99.90
18797;DHT22;9526;52.612;13.300;2023-04-15T09:27:23;11.80;99.90
18797;DHT22;9526;52.612;13.300;2023-04-15T09:29:49;11.90;99.90
18797;DHT22;9526;52.612;13.300;2023-04-15T09:32:14;11.90;99.90
18797;DHT22;9526;52.612;13.300;2023-04-15T09:34:40;11.90;99.90
18797;DHT22;9526;52.612;13.300;2023-04-15T09:37:03;12.00;99.90
18797;DHT22;9526;52.612;13.300;2023-04-15T09:39:44;11.90;99.90
18797;DHT22;9526;52.612;13.300;2023-04-15T09:42:12;12.00;99.90
18797;DHT22;9526;52.612;13.300;2023-04-15T09:44:35;12.00;99.90
18797;DHT22;9526;52.612;13.300;2023-04-15T09:46:59;12.00;99.90
18797;DHT22;9526;52.612;13.300;2023-04-15T09:49:23;11.90;99.90
18797;DHT22;9526;52.612;13.300;2023-04-15T09:51:48;12.00;99.90
18797;DHT22;9526;52.612;13.300;2023-04-15T09:54:33;11.90;99.90
18797;DHT22;9526;52.612;13.300;2023-04-15T09:57:04;12.00;99.90
18797;DHT22;9526;52.612;13.300;2023-04-15T09:59:29;12.00;99.90
18797;DHT22;9526;52.612;13.300;2023-04-15T10:01:52;11.90;99.90
18797;DHT22;9526;52.612;13.300;2023-04-15T10:04:17;11.90;99.90
18797;DHT22;9526;52.612;13.300;2023-04-15T10:06:40;11.90;99.90
18797;DHT22;9526;52.612;13.300;2023-04-15T10:09:06;12.00;99.90
18797;DHT22;9526;52.612;13.300;2023-04-15T10:11:31;11.90;99.90
18797;DHT22;9526;52.612;13.300;2023-04-15T10:13:56;11.80;99.90
18797;DHT22;9526;52.612;13.300;2023-04-15T10:16:20;11.80;99.90
18797;DHT22;9526;52.612;13.300;2023-04-15T10:18:46;12.00;99.90
18797;DHT22;9526;52.612;13.300;2023-04-15T10:21:13;11.90;99.90
18797;DHT22;9526;52.612;13.300;2023-04-15T10:23:40;11.90;99.90
18797;DHT22;9526;52.612;13.300;2023-04-15T10:26:05;11.80;99.90
18797;DHT22;9526;52.612;13.300;2023-04-15T10:28:30;11.80;99.90
18797;DHT22;9526;52.612;13.300;2023-04-15T10:30:53;11.80;99.90
18797;DHT22;9526;52.612;13.300;2023-04-15T10:33:20;11.80;99.90
18797;DHT22;9526;52.612;13.300;2023-04-15T10:35:46;11.80;99.90
18797;DHT22;9526;52.612;13.300;2023-04-15T10:38:36;11.90;99.90
18797;DHT22;9526;52.612;13.300;2023-04-15T10:41:16;11.90;99.90
18797;DHT22;9526;52.612;13.300;2023-04-15T10:43:47;11.90;99.90
18797;DHT22;9526;52.612;13.300;2023-04-15T10:46:17;11.90;99.90
18797;DHT22;9526;52.612;13.300;2023-04-15T10:48:47;12.00;99.90
18797;DHT22;9526;52.612;13.300;2023-04-15T10:51:13;12.00;99.90
18797;DHT22;9526;52.612;13.300;2023-04-15T10:53:36;11.90;99.90
18797;DHT22;9526;52.612;13.300;2023-04-15T10:56:01;11.90;99.90
18797;DHT22;9526;52.612;13.300;2023-04-15T10:58:40;12.00;99.90
18797;DHT22;9526;52.612;13.300;2023-04-15T11:01:05;12.00;99.90
18797;DHT22;9526;52.612;13.300;2023-04-15T11:03:38;12.00;99.90
18797;DHT22;9526;52.612;13.300;2023-04-15T11:06:05;12.10;99.90
18797;DHT22;9526;52.612;13.300;2023-04-15T11:08:54;12.00;99.90
18797;DHT22;9526;52.612;13.300;2023-04-15T11:11:20;12.00;99.90
18797;DHT22;9526;52.612;13.300;2023-04-15T11:13:48;12.10;99.90
18797;DHT22;9526;52.612;13.300;2023-04-15T11:16:13;12.10;99.90
18797;DHT22;9526;52.612;13.300;2023-04-15T11:18:37;12.00;99.90
18797;DHT22;9526;52.612;13.300;2023-04-15T11:21:04;12.10;99.90
18797;DHT22;9526;52.612;13.300;2023-04-15T11:23:30;12.10;99.90
18797;DHT22;9526;52.612;13.300;2023-04-15T11:25:55;12.10;99.90
18797;DHT22;9526;52.612;13.300;2023-04-15T11:28:20;12.10;99.90
18797;DHT22;9526;52.612;13.300;2023-04-15T11:30:50;12.10;99.90
18797;DHT22;9526;52.612;13.300;2023-04-15T11:33:13;12.10;99.90
18797;DHT22;9526;52.612;13.300;2023-04-15T11:35:37;12.20;99.90
18797;DHT22;9526;52.612;13.300;2023-04-15T11:38:02;12.20;99.90
18797;DHT22;9526;52.612;13.300;2023-04-15T11:40:28;12.20;99.90
18797;DHT22;9526;52.612;13.300;2023-04-15T11:43:03;12.30;99.90
18797;DHT22;9526;52.612;13.300;2023-04-15T11:45:27;12.20;99.90
18797;DHT22;9526;52.612;13.300;2023-04-15T11:47:53;12.20;99.90
18797;DHT22;9526;52.612;13.300;2023-04-15T11:50:17;12.20;99.90
18797;DHT22;9526;52.612;13.300;2023-04-15T11:52:51;12.20;99.90
18797;DHT22;9526;52.612;13.300;2023-04-15T11:55:16;12.20;99.90
18797;DHT22;9526;52.612;13.300;2023-04-15T11:57:39;12.10;99.90
18797;DHT22;9526;52.612;13.300;2023-04-15T12:00:05;12.10;99.90
18797;DHT22;9526;52.612;13.300;2023-04-15T12:02:30;12.10;99.90
18797;DHT22;9526;52.612;13.300;2023-04-15T12:05:03;12.10;99.90
18797;DHT22;9526;52.612;13.300;2023-04-15T12:07:27;12.10;99.90
18797;DHT22;9526;52.612;13.300;2023-04-15T12:09:54;12.10;99.90
18797;DHT22;9526;52.612;13.300;2023-04-15T12:12:19;12.10;99.90
18797;DHT22;9526;52.612;13.300;2023-04-15T12:14:43;12.10;99.90
18797;DHT22;9526;52.612;13.300;2023-04-15T12:17:09;12.10;99.90
18797;DHT22;9526;52.612;13.300;2023-04-15T12:19:35;12.00;99.90
18797;DHT22;9526;52.612;13.300;2023-04-15T12:22:03;12.00;99.90
18797;DHT22;9526;52.612;13.300;2023-04-15T12:24:31;12.00;99.90
18797;DHT22;9526;52.612;13.300;2023-04-15T12:26:56;12.10;99.90
18797;DHT22;9526;52.612;13.300;2023-04-15T12:29:24;12.10;99.90
18797;DHT22;9526;52.612;13.300;2023-04-15T12:31:50;12.20;99.90
18797;DHT22;9526;52.612;13.300;2023-04-15T12:34:14;12.10;99.90
18797;DHT22;9526;52.612;13.300;2023-04-15T12:36:38;12.20;99.90
18797;DHT22;9526;52.612;13.300;2023-04-15T12:39:03;12.20;99.90
18797;DHT22;9526;52.612;13.300;2023-04-15T12:41:27;12.30;99.90
18797;DHT22;9526;52.612;13.300;2023-04-15T12:43:51;12.30;99.90
18797;DHT22;9526;52.612;13.300;2023-04-15T12:46:15;12.30;99.90
18797;DHT22;9526;52.612;13.300;2023-04-15T12:48:39;12.30;99.90
18797;DHT22;9526;52.612;13.300;2023-04-15T12:51:03;12.20;99.90
18797;DHT22;9526;52.612;13.300;2023-04-15T12:53:26;12.20;99.90
18797;DHT22;9526;52.612;13.300;2023-04-15T12:55:51;12.20;99.90
18797;DHT22;9526;52.612;13.300;2023-04-15T12:58:15;12.20;99.90
18797;DHT22;9526;52.612;13.300;2023-04-15T13:00:39;12.20;99.90
18797;DHT22;9526;52.612;13.300;2023-04-15T13:03:03;12.20;99.90
18797;DHT22;9526;52.612;13.300;2023-04-15T13:05:28;12.20;99.90
18797;DHT22;9526;52.612;13.300;2023-04-15T13:07:51;12.20;99.90
18797;DHT22;9526;52.612;13.300;2023-04-15T13:10:15;12.20;99.90
18797;DHT22;9526;52.612;13.300;2023-04-15T13:12:40;12.10;99.90
18797;DHT22;9526;52.612;13.300;2023-04-15T13:15:05;12.10;99.90
18797;DHT22;9526;52.612;13.300;2023-04-15T13:17:31;12.10;99.90
18797;DHT22;9526;52.612;13.300;2023-04-15T13:19:55;12.10;99.90
18797;DHT22;9526;52.612;13.300;2023-04-15T13:22:19;12.10;99.90
18797;DHT22;9526;52.612;13.300;2023-04-15T13:24:42;12.00;99.90
18797;DHT22;9526;52.612;13.300;2023-04-15T13:27:06;12.00;99.90
18797;DHT22;9526;52.612;13.300;2023-04-15T13:29:31;12.10;99.90
18797;DHT22;9526;52.612;13.300;2023-04-15T13:31:55;12.10;99.90
18797;DHT22;9526;52.612;13.300;2023-04-15T13:34:19;12.10;99.90
18797;DHT22;9526;52.612;13.300;2023-04-15T13:36:42;12.00;99.90
18797;DHT22;9526;52.612;13.300;2023-04-15T13:39:06;12.10;99.90
18797;DHT22;9526;52.612;13.300;2023-04-15T13:41:30;12.10;99.90
18797;DHT22;9526;52.612;13.300;2023-04-15T13:43:54;12.10;99.90
18797;DHT22;9526;52.612;13.300;2023-04-15T13:46:20;12.10;99.90
18797;DHT22;9526;52.612;13.300;2023-04-15T13:48:44;12.10;99.90
18797;DHT22;9526;52.612;13.300;2023-04-15T13:51:07;12.10;99.90
18797;DHT22;9526;52.612;13.300;2023-04-15T13:53:31;12.10;99.90
18797;DHT22;9526;52.612;13.300;2023-04-15T13:56:00;12.10;99.90
18797;DHT22;9526;52.612;13.300;2023-04-15T13:58:24;12.10;99.90
18797;DHT22;9526;52.612;13.300;2023-04-15T14:00:47;12.10;99.90
18797;DHT22;9526;52.612;13.300;2023-04-15T14:03:12;12.10;99.90
18797;DHT22;9526;52.612;13.300;2023-04-15T14:05:36;12.10;99.90
18797;DHT22;9526;52.612;13.300;2023-04-15T14:08:00;12.10;99.90
18797;DHT22;9526;52.612;13.300;2023-04-15T14:10:24;12.10;99.90
18797;DHT22;9526;52.612;13.300;2023-04-15T14:12:47;12.00;99.90
18797;DHT22;9526;52.612;13.300;2023-04-15T14:15:11;12.00;99.90
18797;DHT22;9526;52.612;13.300;2023-04-15T14:17:35;12.00;99.90
18797;DHT22;9526;52.612;13.300;2023-04-15T14:20:01;12.00;99.90
18797;DHT22;9526;52.612;13.300;2023-04-15T14:22:24;11.90;99.90
18797;DHT22;9526;52.612;13.300;2023-04-15T14:24:48;12.00;99.90
18797;DHT22;9526;52.612;13.300;2023-04-15T14:27:14;12.00;99.90
18797;DHT22;9526;52.612;13.300;2023-04-15T14:29:37;11.90;99.90
18797;DHT22;9526;52.612;13.300;2023-04-15T14:32:01;12.00;99.90
18797;DHT22;9526;52.612;13.300;2023-04-15T14:34:33;12.00;99.90
18797;DHT22;9526;52.612;13.300;2023-04-15T14:36:58;12.00;99.90
18797;DHT22;9526;52.612;13.300;2023-04-15T14:39:22;12.00;99.90
18797;DHT22;9526;52.612;13.300;2023-04-15T14:41:47;11.90;99.90
18797;DHT22;9526;52.612;13.300;2023-04-15T14:44:12;12.00;99.90
18797;DHT22;9526;52.612;13.300;2023-04-15T14:46:36;11.90;99.90
18797;DHT22;9526;52.612;13.300;2023-04-15T14:49:00;11.90;99.90
18797;DHT22;9526;52.612;13.300;2023-04-15T14:51:24;11.90;99.90
18797;DHT22;9526;52.612;13.300;2023-04-15T14:53:50;11.90;99.90
18797;DHT22;9526;52.612;13.300;2023-04-15T14:56:14;11.80;99.90
18797;DHT22;9526;52.612;13.300;2023-04-15T14:58:37;11.70;99.90
18797;DHT22;9526;52.612;13.300;2023-04-15T15:01:02;11.60;99.90
18797;DHT22;9526;52.612;13.300;2023-04-15T15:03:26;11.70;99.90
18797;DHT22;9526;52.612;13.300;2023-04-15T15:05:51;11.70;99.90
18797;DHT22;9526;52.612;13.300;2023-04-15T15:08:15;11.70;99.90
18797;DHT22;9526;52.612;13.300;2023-04-15T15:10:40;11.70;99.90
18797;DHT22;9526;52.612;13.300;2023-04-15T15:13:10;11.80;99.90
18797;DHT22;9526;52.612;13.300;2023-04-15T15:15:34;11.70;99.90
18797;DHT22;9526;52.612;13.300;2023-04-15T15:17:58;11.60;99.90
18797;DHT22;9526;52.612;13.300;2023-04-15T15:20:22;11.60;99.90
18797;DHT22;9526;52.612;13.300;2023-04-15T15:22:46;11.60;99.90